Lincoln, Michigan
Current Conditions -  °F | °C
As of 10:34 AM on Thursday 18 Dec 2014 (Local Time) from KOSC Reporting Station
Overcast Overcast  
Wind Chill: 18°   Ceiling: 1000
Heat Index: 25°   Visibility: 10mi
Dew Point: 22°   Wind: 6mph
Humidity: 89%   Direction: 300°WNW
Pressure: 30.19"   Gusts: NA
Location:  44.68°N, 83.41°W
Report Text: KOSC 181534Z AUTO 30005KT 10SM OVC010 M03/M05 A3019 RMK AO2 T10391055
Loading
Personal Weather Stations






























Interactive Weather Map New forecast layout! Learn more

10-Day Weather Forecast

Advertisements
Track Severe Weather on mobile